Time;durP1;ratioP1;P1;durP2;ratioP2;P2;SDS_P1;SDS_P2;PMS_P1;PMS_P2;Temp;Humidity;BMP_temperature;BMP_pressure;BME280_temperature;BME280_humidity;BME280_pressure;Samples;Min_cycle;Max_cycle;Signal;HPM_P1;HPM_P2
2021/04/25 00:00:59;;;;;;;4.33;3.30;;;7.30;87.60;;;;;;5056508;28;20428;-71
2021/04/25 00:03:24;;;;;;;6.60;3.83;;;7.40;88.40;;;;;;5055585;28;20455;-71
2021/04/25 00:05:50;;;;;;;8.60;3.47;;;7.30;88.80;;;;;;5057020;28;20170;-71
2021/04/25 00:08:15;;;;;;;5.17;3.00;;;7.10;89.50;;;;;;5062494;28;20177;-70
2021/04/25 00:10:42;;;;;;;5.10;3.60;;;7.20;90.00;;;;;;5076160;28;20208;-71
2021/04/25 00:13:09;;;;;;;7.30;3.77;;;7.10;90.20;;;;;;5076193;28;20193;-70
2021/04/25 00:15:35;;;;;;;5.73;3.50;;;7.20;90.30;;;;;;5076430;28;20443;-71
2021/04/25 00:18:00;;;;;;;5.70;3.50;;;7.20;90.40;;;;;;5076206;28;20400;-71
2021/04/25 00:20:26;;;;;;;5.37;3.50;;;7.10;90.80;;;;;;5073793;28;20862;-71
2021/04/25 00:22:52;;;;;;;6.03;3.73;;;7.00;90.90;;;;;;5074523;28;20185;-71
2021/04/25 00:25:18;;;;;;;7.63;4.07;;;6.90;91.20;;;;;;5076487;28;20407;-71
2021/04/25 00:27:44;;;;;;;6.10;4.00;;;6.90;91.50;;;;;;5076220;28;20574;-71
2021/04/25 00:30:13;;;;;;;6.63;4.33;;;6.90;91.70;;;;;;5065188;28;20559;-71
2021/04/25 00:32:38;;;;;;;7.00;3.83;;;6.80;92.00;;;;;;5055991;28;20452;-71
2021/04/25 00:35:05;;;;;;;8.23;4.77;;;6.80;92.20;;;;;;5054714;28;20417;-71
2021/04/25 00:37:31;;;;;;;7.22;4.55;;;6.80;92.30;;;;;;5055567;28;20530;-71
2021/04/25 00:39:57;;;;;;;7.50;4.20;;;6.70;92.60;;;;;;5058562;28;20610;-71
2021/04/25 00:42:24;;;;;;;6.10;3.90;;;6.50;93.10;;;;;;5074676;28;20450;-70
2021/04/25 00:44:50;;;;;;;15.57;4.70;;;6.40;93.50;;;;;;5078598;28;20166;-71
2021/04/25 00:47:15;;;;;;;6.50;3.90;;;6.40;93.90;;;;;;5088576;28;20408;-71
2021/04/25 00:49:41;;;;;;;7.10;3.60;;;6.40;94.00;;;;;;5088490;28;20455;-71
2021/04/25 00:52:07;;;;;;;5.63;3.57;;;6.40;94.30;;;;;;5076081;28;20205;-72
2021/04/25 00:54:34;;;;;;;7.10;4.00;;;6.30;94.50;;;;;;5075935;28;20173;-71
2021/04/25 00:56:59;;;;;;;9.10;4.97;;;6.30;94.60;;;;;;5075317;28;20873;-71
2021/04/25 00:59:28;;;;;;;7.70;4.30;;;6.30;94.80;;;;;;5074241;28;20534;-71
2021/04/25 01:01:54;;;;;;;11.60;3.90;;;6.30;94.90;;;;;;5073443;28;20204;-70
2021/04/25 01:04:20;;;;;;;6.87;4.17;;;6.30;95.00;;;;;;5075070;28;20412;-71
2021/04/25 01:06:46;;;;;;;5.70;3.83;;;6.20;95.20;;;;;;5075356;28;20560;-71
2021/04/25 01:09:11;;;;;;;5.30;4.10;;;6.10;95.60;;;;;;5075051;28;20431;-71
2021/04/25 01:11:37;;;;;;;6.97;4.00;;;6.20;95.60;;;;;;5073404;28;20205;-70
2021/04/25 01:14:03;;;;;;;11.17;4.53;;;6.20;95.70;;;;;;5074802;28;20510;-70
2021/04/25 01:16:28;;;;;;;9.30;4.47;;;6.30;95.50;;;;;;5073549;28;20197;-70
2021/04/25 01:18:55;;;;;;;9.00;4.70;;;6.20;95.60;;;;;;5074465;28;20189;-70
2021/04/25 01:21:21;;;;;;;6.77;4.20;;;6.10;95.70;;;;;;5073591;28;20176;-70
2021/04/25 01:23:47;;;;;;;6.17;4.20;;;6.10;95.80;;;;;;5071583;28;20837;-70
2021/04/25 01:26:12;;;;;;;5.70;4.10;;;6.10;95.90;;;;;;5074835;28;20451;-70
2021/04/25 01:28:38;;;;;;;6.60;3.90;;;6.10;96.00;;;;;;5074669;28;20229;-70
2021/04/25 01:31:04;;;;;;;5.87;4.00;;;6.10;96.10;;;;;;5074462;28;20193;-70
2021/04/25 01:33:33;;;;;;;6.47;3.63;;;6.00;96.20;;;;;;5073005;28;20335;-71
2021/04/25 01:35:58;;;;;;;11.20;4.27;;;6.00;96.20;;;;;;5073889;28;20414;-71
2021/04/25 01:38:24;;;;;;;9.17;5.00;;;5.90;96.50;;;;;;5074149;28;21285;-71
2021/04/25 01:40:50;;;;;;;6.70;4.03;;;5.70;96.70;;;;;;5074255;28;20507;-70
2021/04/25 01:43:15;;;;;;;7.73;3.93;;;5.60;97.50;;;;;;5074627;28;20193;-70
2021/04/25 01:45:41;;;;;;;7.60;4.10;;;5.60;97.40;;;;;;5072748;28;20188;-70
2021/04/25 01:48:08;;;;;;;8.13;4.40;;;5.50;97.50;;;;;;5074161;28;20173;-70
2021/04/25 01:50:35;;;;;;;7.10;4.17;;;5.50;97.70;;;;;;5073837;28;20617;-70
2021/04/25 01:53:01;;;;;;;7.77;4.30;;;5.50;97.90;;;;;;5074117;28;20831;-71
2021/04/25 01:55:28;;;;;;;9.20;4.50;;;5.50;98.00;;;;;;5072651;28;20431;-70
2021/04/25 01:57:54;;;;;;;7.13;4.13;;;5.50;98.00;;;;;;5073677;28;20414;-70
2021/04/25 02:00:49;;;;;;;5.87;4.40;;;5.40;98.10;;;;;;5074356;28;20433;-70
2021/04/25 02:03:15;;;;;;;9.57;4.63;;;5.30;98.40;;;;;;5032003;28;20189;-70
2021/04/25 02:05:42;;;;;;;7.20;4.20;;;5.30;98.50;;;;;;5030547;28;20511;-70
2021/04/25 02:08:09;;;;;;;7.90;4.07;;;5.30;98.70;;;;;;5031633;28;20432;-70
2021/04/25 02:10:38;;;;;;;7.43;3.70;;;5.30;98.60;;;;;;5031913;28;20436;-70
2021/04/25 02:13:07;;;;;;;6.47;4.53;;;5.40;98.60;;;;;;5031516;28;20551;-70
2021/04/25 02:15:33;;;;;;;7.60;4.53;;;5.40;98.50;;;;;;5030695;28;20462;-70
2021/04/25 02:17:59;;;;;;;9.63;5.90;;;5.50;98.40;;;;;;5012110;28;20420;-70
2021/04/25 02:20:25;;;;;;;6.40;4.87;;;5.60;98.10;;;;;;5028548;28;20446;-71
2021/04/25 02:22:54;;;;;;;7.20;4.67;;;5.60;98.00;;;;;;4995949;28;20705;-70
2021/04/25 02:25:20;;;;;;;6.00;4.23;;;5.60;98.00;;;;;;5012437;28;20509;-70
2021/04/25 02:27:46;;;;;;;9.13;4.40;;;5.60;98.10;;;;;;5013424;28;20437;-70
2021/04/25 02:30:19;;;;;;;7.97;4.40;;;5.50;98.10;;;;;;5013121;28;20461;-70
2021/04/25 02:32:45;;;;;;;6.03;4.60;;;5.60;98.10;;;;;;5011444;28;20506;-70
2021/04/25 02:35:11;;;;;;;8.30;3.80;;;5.50;98.10;;;;;;5012081;28;20466;-70
2021/04/25 02:37:38;;;;;;;9.50;4.73;;;5.50;98.20;;;;;;5012310;28;20437;-70
2021/04/25 02:40:08;;;;;;;9.23;4.80;;;5.40;98.30;;;;;;5040285;28;21066;-70
2021/04/25 02:42:34;;;;;;;8.70;4.70;;;5.40;98.40;;;;;;5053687;28;20777;-70
2021/04/25 02:45:00;;;;;;;9.80;4.90;;;5.30;98.60;;;;;;5053407;28;20434;-70
2021/04/25 02:47:26;;;;;;;9.90;5.40;;;5.30;98.80;;;;;;5053369;28;20166;-70
2021/04/25 02:49:51;;;;;;;8.47;5.70;;;5.30;98.90;;;;;;5054312;28;20432;-70
2021/04/25 02:52:17;;;;;;;7.50;4.33;;;5.30;99.00;;;;;;5053070;28;20221;-70
2021/04/25 02:54:42;;;;;;;7.90;4.40;;;5.40;99.00;;;;;;5053164;28;20166;-70
2021/04/25 02:57:08;;;;;;;7.60;5.43;;;5.40;98.90;;;;;;5053195;28;20172;-72
2021/04/25 02:59:33;;;;;;;8.00;5.03;;;5.40;98.90;;;;;;5054303;28;20555;-71
2021/04/25 03:01:59;;;;;;;6.83;4.60;;;5.50;98.90;;;;;;5053448;28;20185;-71
2021/04/25 03:04:25;;;;;;;7.93;4.47;;;5.50;98.80;;;;;;5053159;28;20189;-70
2021/04/25 03:06:50;;;;;;;7.93;4.90;;;5.60;98.70;;;;;;5053393;28;20173;-71
2021/04/25 03:09:16;;;;;;;8.80;4.37;;;5.70;98.60;;;;;;5054319;28;20713;-71
2021/04/25 03:11:41;;;;;;;8.33;4.77;;;5.80;98.40;;;;;;5052823;28;20300;-71
2021/04/25 03:14:07;;;;;;;8.50;4.70;;;5.90;98.20;;;;;;5052625;28;20170;-71
2021/04/25 03:16:32;;;;;;;6.50;4.60;;;5.90;98.10;;;;;;5052758;28;20170;-71
2021/04/25 03:18:58;;;;;;;7.17;4.30;;;5.90;98.10;;;;;;5053063;28;20185;-71
2021/04/25 03:21:23;;;;;;;7.73;4.73;;;5.90;98.10;;;;;;5054084;28;20666;-71
2021/04/25 03:23:49;;;;;;;9.60;5.13;;;5.90;98.10;;;;;;5052596;28;20550;-71
2021/04/25 03:26:14;;;;;;;8.60;4.90;;;5.90;98.20;;;;;;5055932;28;20166;-71
2021/04/25 03:28:40;;;;;;;8.90;4.70;;;5.90;98.20;;;;;;5057005;28;20190;-71
2021/04/25 03:31:05;;;;;;;8.50;5.07;;;5.80;98.30;;;;;;5065603;28;20181;-71
2021/04/25 03:33:31;;;;;;;10.17;4.43;;;5.80;98.30;;;;;;5076495;28;20221;-71
2021/04/25 03:35:56;;;;;;;7.50;4.97;;;5.70;98.40;;;;;;5071364;28;20236;-71
2021/04/25 03:38:25;;;;;;;10.57;4.80;;;5.80;98.50;;;;;;5056397;28;20235;-71
2021/04/25 03:40:50;;;;;;;8.27;5.17;;;5.90;98.50;;;;;;5058391;28;20499;-71
2021/04/25 03:43:16;;;;;;;9.73;5.27;;;5.80;98.40;;;;;;5056758;28;20411;-71
2021/04/25 03:45:41;;;;;;;7.50;4.60;;;5.60;98.70;;;;;;5056738;28;20170;-71
2021/04/25 03:48:07;;;;;;;12.13;5.57;;;5.60;99.00;;;;;;5056211;28;20175;-71
2021/04/25 03:50:32;;;;;;;10.50;5.70;;;5.60;99.20;;;;;;5056541;28;20557;-71
2021/04/25 03:52:58;;;;;;;11.97;5.00;;;5.60;99.10;;;;;;5057265;28;20248;-71
2021/04/25 03:55:24;;;;;;;13.80;6.20;;;5.70;99.10;;;;;;5056434;28;20662;-71
2021/04/25 03:57:50;;;;;;;12.80;5.27;;;5.70;99.00;;;;;;5056209;28;20623;-71
2021/04/25 04:00:18;;;;;;;8.27;5.67;;;5.70;99.00;;;;;;5056087;28;20954;-71
2021/04/25 04:02:43;;;;;;;9.70;5.23;;;5.60;99.00;;;;;;5057747;28;20417;-71
2021/04/25 04:05:11;;;;;;;9.80;7.13;;;5.60;99.10;;;;;;5056195;28;20765;-71
2021/04/25 04:07:36;;;;;;;11.10;5.80;;;5.60;99.10;;;;;;5056342;28;20225;-72
2021/04/25 04:10:03;;;;;;;9.40;5.83;;;5.60;99.20;;;;;;5056431;28;20810;-71
2021/04/25 04:12:29;;;;;;;9.77;5.50;;;5.60;99.20;;;;;;5056708;28;20190;-71
2021/04/25 04:14:54;;;;;;;8.73;5.57;;;5.60;99.20;;;;;;5057265;28;20435;-71
2021/04/25 04:17:20;;;;;;;9.50;5.80;;;5.60;99.00;;;;;;5056078;28;20166;-71
2021/04/25 04:19:45;;;;;;;13.53;6.93;;;5.60;99.00;;;;;;5055796;28;20197;-71
2021/04/25 04:22:11;;;;;;;9.73;5.73;;;5.50;99.00;;;;;;5054587;28;20190;-71
2021/04/25 04:24:37;;;;;;;10.43;5.97;;;5.50;99.40;;;;;;5056594;28;20247;-71
2021/04/25 04:27:03;;;;;;;11.10;6.13;;;5.40;99.10;;;;;;5055447;28;20220;-71
2021/04/25 04:29:29;;;;;;;8.90;5.80;;;5.40;99.30;;;;;;5055662;28;20446;-72
2021/04/25 04:31:55;;;;;;;10.80;6.13;;;5.40;99.50;;;;;;5055862;28;20448;-71
2021/04/25 04:34:21;;;;;;;13.00;5.70;;;5.40;99.50;;;;;;5056455;28;20427;-71
2021/04/25 04:36:46;;;;;;;9.60;5.80;;;5.50;99.40;;;;;;5055277;28;20170;-71
2021/04/25 04:39:12;;;;;;;7.47;6.20;;;5.50;99.50;;;;;;5055044;28;20209;-71
2021/04/25 04:41:38;;;;;;;8.03;5.50;;;5.60;99.40;;;;;;5055721;28;20174;-71
2021/04/25 04:44:04;;;;;;;10.30;6.63;;;5.70;99.30;;;;;;5055308;28;20443;-71
2021/04/25 04:46:29;;;;;;;10.27;5.93;;;5.70;99.30;;;;;;5056795;28;20175;-71
2021/04/25 04:48:55;;;;;;;12.73;5.60;;;5.80;99.20;;;;;;5055217;28;20816;-71
2021/04/25 04:51:21;;;;;;;10.00;5.70;;;5.80;99.10;;;;;;5055778;28;20171;-71
2021/04/25 04:53:46;;;;;;;13.27;6.20;;;5.90;99.00;;;;;;5054994;28;20167;-71
2021/04/25 04:56:12;;;;;;;11.63;5.70;;;6.00;98.80;;;;;;5056235;28;20182;-71
2021/04/25 04:58:37;;;;;;;9.00;6.47;;;6.10;98.70;;;;;;5055480;28;20285;-71
2021/04/25 05:01:03;;;;;;;9.20;5.90;;;6.00;98.60;;;;;;5055793;28;20539;-71
2021/04/25 05:03:28;;;;;;;9.70;6.30;;;5.90;99.00;;;;;;5054722;28;20189;-71
2021/04/25 05:05:54;;;;;;;9.83;6.60;;;5.80;99.00;;;;;;5055975;28;20178;-71
2021/04/25 05:08:19;;;;;;;11.13;6.20;;;5.90;99.10;;;;;;5054536;28;20178;-71
2021/04/25 05:10:45;;;;;;;10.47;6.80;;;5.90;98.80;;;;;;5054885;28;20174;-71
2021/04/25 05:13:11;;;;;;;9.97;6.70;;;5.90;98.60;;;;;;5055395;28;20197;-71
2021/04/25 05:15:38;;;;;;;10.40;6.63;;;6.00;98.50;;;;;;5054538;28;20182;-71
2021/04/25 05:18:04;;;;;;;12.50;6.80;;;6.00;98.40;;;;;;5055846;28;20425;-71
2021/04/25 05:20:29;;;;;;;12.60;6.47;;;6.20;98.30;;;;;;5054885;28;20867;-71
2021/04/25 05:22:56;;;;;;;11.23;6.53;;;6.20;97.80;;;;;;5054756;28;20445;-71
2021/04/25 05:25:22;;;;;;;11.70;6.53;;;6.30;97.50;;;;;;5054650;28;20557;-71
2021/04/25 05:27:48;;;;;;;7.83;5.40;;;6.20;96.90;;;;;;5055828;28;20429;-71
2021/04/25 05:30:14;;;;;;;10.10;6.63;;;6.20;96.90;;;;;;5053379;28;20214;-72
2021/04/25 05:32:40;;;;;;;8.43;5.93;;;6.10;96.80;;;;;;5057331;28;20197;-71
2021/04/25 05:35:06;;;;;;;9.80;5.93;;;6.00;96.90;;;;;;5074858;28;20416;-71
2021/04/25 05:37:31;;;;;;;9.20;6.00;;;6.00;96.80;;;;;;5074118;28;20172;-71
2021/04/25 05:39:57;;;;;;;6.73;5.00;;;6.00;96.70;;;;;;5074427;28;20784;-71
2021/04/25 05:42:23;;;;;;;9.80;5.70;;;5.90;96.80;;;;;;5074283;28;20223;-71
2021/04/25 05:44:50;;;;;;;10.70;6.20;;;5.90;97.00;;;;;;5073130;28;20185;-71
2021/04/25 05:47:16;;;;;;;14.13;5.80;;;6.00;97.00;;;;;;5075758;28;20190;-71
2021/04/25 05:49:42;;;;;;;8.03;5.23;;;6.20;96.90;;;;;;5076411;28;20435;-71
2021/04/25 05:52:07;;;;;;;6.97;5.40;;;6.30;96.40;;;;;;5075991;28;20205;-71
2021/04/25 05:54:33;;;;;;;7.10;5.23;;;6.30;95.70;;;;;;5073772;28;20174;-71
2021/04/25 05:56:58;;;;;;;7.07;5.50;;;6.20;95.80;;;;;;5074062;28;20690;-72
2021/04/25 05:59:24;;;;;;;8.53;5.60;;;6.20;95.90;;;;;;5073841;28;20196;-71
2021/04/25 06:01:50;;;;;;;8.93;5.87;;;6.40;96.00;;;;;;5073840;28;20173;-71
2021/04/25 06:04:15;;;;;;;9.03;5.77;;;6.40;95.70;;;;;;5071201;28;20223;-71
2021/04/25 06:06:41;;;;;;;6.90;5.80;;;6.50;95.60;;;;;;5074256;28;20174;-72
2021/04/25 06:09:06;;;;;;;8.70;5.70;;;6.60;95.40;;;;;;5073618;28;20193;-71
2021/04/25 06:11:34;;;;;;;8.57;5.50;;;6.60;95.00;;;;;;5073779;28;20171;-71
2021/04/25 06:14:00;;;;;;;8.50;5.23;;;6.50;94.90;;;;;;5074197;28;20408;-71
2021/04/25 06:16:25;;;;;;;8.93;5.70;;;6.50;95.10;;;;;;5072543;28;20422;-72
2021/04/25 06:18:51;;;;;;;7.73;5.70;;;6.40;94.60;;;;;;5074355;28;20654;-71
2021/04/25 06:21:16;;;;;;;8.07;6.27;;;6.30;95.00;;;;;;5074964;28;20223;-71
2021/04/25 06:23:42;;;;;;;7.73;5.50;;;6.40;95.10;;;;;;5074764;28;20228;-71
2021/04/25 06:26:07;;;;;;;7.53;5.33;;;6.60;95.10;;;;;;5073054;28;20642;-71
2021/04/25 06:28:33;;;;;;;7.50;5.33;;;6.70;94.70;;;;;;5073714;28;20169;-71
2021/04/25 06:30:59;;;;;;;9.90;4.90;;;6.80;94.60;;;;;;5073954;28;20181;-71
2021/04/25 06:33:25;;;;;;;8.73;6.03;;;6.90;94.60;;;;;;5055538;28;20222;-71
2021/04/25 06:35:50;;;;;;;7.30;5.50;;;7.00;94.40;;;;;;5053960;28;20762;-71
2021/04/25 06:38:16;;;;;;;11.47;6.63;;;7.00;93.90;;;;;;5054625;28;20438;-71
2021/04/25 06:40:42;;;;;;;11.73;7.27;;;7.00;93.30;;;;;;5053528;28;20189;-71
2021/04/25 06:43:08;;;;;;;6.80;5.97;;;7.10;93.10;;;;;;5053443;28;20217;-71
2021/04/25 06:45:34;;;;;;;8.90;6.80;;;7.10;92.70;;;;;;5053756;28;20600;-71
2021/04/25 06:47:59;;;;;;;12.63;8.57;;;7.20;92.60;;;;;;5055022;28;20175;-72
2021/04/25 06:50:25;;;;;;;12.37;7.97;;;7.10;92.10;;;;;;5053437;28;20734;-71
2021/04/25 06:52:51;;;;;;;11.53;8.57;;;7.00;92.30;;;;;;5053153;28;20194;-71
2021/04/25 06:55:19;;;;;;;12.80;9.47;;;7.20;92.40;;;;;;5054059;28;20175;-71
2021/04/25 06:57:47;;;;;;;12.10;9.07;;;6.90;92.20;;;;;;5054418;28;20222;-72
2021/04/25 07:00:14;;;;;;;11.57;9.93;;;7.10;92.30;;;;;;5054759;28;20517;-71
2021/04/25 07:02:40;;;;;;;12.20;9.37;;;7.10;92.00;;;;;;5057167;28;20410;-71
2021/04/25 07:05:06;;;;;;;15.90;10.87;;;7.20;91.70;;;;;;5056265;28;20489;-71
2021/04/25 07:07:32;;;;;;;13.70;9.40;;;7.20;91.30;;;;;;5057247;28;20568;-71
2021/04/25 07:09:59;;;;;;;17.50;11.80;;;7.00;91.20;;;;;;5048789;28;20487;-71
2021/04/25 07:12:25;;;;;;;14.53;11.53;;;7.10;91.40;;;;;;5042135;28;20234;-71
2021/04/25 07:14:51;;;;;;;20.10;13.97;;;7.00;91.40;;;;;;5037831;28;20408;-71
2021/04/25 07:17:17;;;;;;;18.60;14.13;;;7.00;91.50;;;;;;5044651;28;20497;-72
2021/04/25 07:19:42;;;;;;;20.43;15.90;;;7.00;91.70;;;;;;5055327;28;20209;-71
2021/04/25 07:22:08;;;;;;;19.07;14.30;;;7.00;91.50;;;;;;5043449;28;20187;-71
2021/04/25 07:24:33;;;;;;;18.20;14.43;;;7.20;91.50;;;;;;5045515;28;20191;-71
2021/04/25 07:26:59;;;;;;;19.53;13.67;;;7.40;91.30;;;;;;5045983;28;20598;-72
2021/04/25 07:29:25;;;;;;;18.93;14.47;;;7.30;91.20;;;;;;5047706;28;20203;-70
2021/04/25 07:31:50;;;;;;;17.73;13.60;;;7.30;91.10;;;;;;5058635;28;20202;-70
2021/04/25 07:34:17;;;;;;;19.00;14.53;;;7.30;91.30;;;;;;5057529;28;20198;-70
2021/04/25 07:36:42;;;;;;;21.57;15.67;;;7.50;91.20;;;;;;5055621;28;20427;-70
2021/04/25 07:39:08;;;;;;;22.10;14.83;;;7.70;90.90;;;;;;5065611;28;20433;-70
2021/04/25 07:41:34;;;;;;;20.03;13.40;;;7.90;90.50;;;;;;5059790;28;20186;-70
2021/04/25 07:43:59;;;;;;;18.20;13.50;;;8.10;89.90;;;;;;5051104;28;20183;-70
2021/04/25 07:46:25;;;;;;;16.00;12.20;;;8.20;88.40;;;;;;5053323;28;20421;-71
2021/04/25 07:48:51;;;;;;;18.53;12.60;;;8.30;87.50;;;;;;5050264;28;20194;-70
2021/04/25 07:51:16;;;;;;;17.93;11.90;;;8.40;86.90;;;;;;5051891;28;20197;-69
2021/04/25 07:53:42;;;;;;;17.10;12.03;;;8.60;86.70;;;;;;5056872;28;20255;-70
2021/04/25 07:56:08;;;;;;;14.70;10.77;;;8.60;86.50;;;;;;5062423;28;20186;-70
2021/04/25 07:58:34;;;;;;;14.37;10.50;;;8.50;86.20;;;;;;5054995;28;20605;-70
2021/04/25 08:01:00;;;;;;;13.67;11.87;;;8.50;86.40;;;;;;5038102;28;20408;-70
2021/04/25 08:03:26;;;;;;;14.63;9.87;;;8.10;87.20;;;;;;5056551;28;20759;-70
2021/04/25 08:05:52;;;;;;;13.10;9.17;;;7.90;88.60;;;;;;5055207;28;20437;-70
2021/04/25 08:08:17;;;;;;;11.33;8.00;;;8.10;88.80;;;;;;5053987;28;20417;-70
2021/04/25 08:10:44;;;;;;;8.00;7.20;;;7.80;88.60;;;;;;5055835;28;20182;-70
2021/04/25 08:13:10;;;;;;;8.30;7.50;;;7.50;89.10;;;;;;5072937;28;20602;-70
2021/04/25 08:15:36;;;;;;;7.80;6.17;;;7.50;90.00;;;;;;5074974;28;20436;-70
2021/04/25 08:18:02;;;;;;;8.60;5.60;;;7.50;89.80;;;;;;5060346;28;20179;-70
2021/04/25 08:20:28;;;;;;;6.07;5.28;;;7.60;89.70;;;;;;5054985;28;20470;-72
2021/04/25 08:22:54;;;;;;;8.63;6.23;;;7.60;89.50;;;;;;5047316;28;20566;-71
2021/04/25 08:25:20;;;;;;;10.03;7.37;;;7.70;89.20;;;;;;5046278;28;20437;-70
2021/04/25 08:27:45;;;;;;;6.40;5.23;;;7.80;88.50;;;;;;5050765;28;20860;-69
2021/04/25 08:30:12;;;;;;;8.00;6.43;;;8.00;88.30;;;;;;5050012;28;20468;-69
2021/04/25 08:32:37;;;;;;;6.77;6.17;;;7.90;87.30;;;;;;5050740;28;20243;-69
2021/04/25 08:35:06;;;;;;;7.77;6.37;;;7.90;87.80;;;;;;5066447;28;20485;-68
2021/04/25 08:37:32;;;;;;;8.07;6.30;;;7.90;88.30;;;;;;5050978;28;20166;-68
2021/04/25 08:39:58;;;;;;;8.47;6.80;;;8.10;88.10;;;;;;5051145;28;20816;-69
2021/04/25 08:42:23;;;;;;;7.47;5.73;;;7.90;87.30;;;;;;5050713;28;20179;-68
2021/04/25 08:44:49;;;;;;;5.30;4.50;;;7.70;87.90;;;;;;5051360;28;20197;-69
2021/04/25 08:47:15;;;;;;;6.83;4.40;;;7.60;88.40;;;;;;5053925;28;20180;-69
2021/04/25 08:49:42;;;;;;;9.33;5.27;;;7.60;89.20;;;;;;5034667;28;20208;-69
2021/04/25 08:52:08;;;;;;;7.57;5.20;;;7.90;89.10;;;;;;5050678;28;21265;-69
2021/04/25 08:54:34;;;;;;;9.83;7.47;;;8.20;89.00;;;;;;5054740;28;20428;-69
2021/04/25 08:57:00;;;;;;;9.40;6.77;;;8.40;87.40;;;;;;5055672;28;20440;-69
2021/04/25 08:59:26;;;;;;;10.13;7.30;;;8.60;86.10;;;;;;5049305;28;20671;-72
2021/04/25 09:01:52;;;;;;;8.07;6.43;;;8.70;86.10;;;;;;5049761;28;20476;-70
2021/04/25 09:04:17;;;;;;;7.63;6.03;;;8.70;85.70;;;;;;5050592;28;20180;-70
2021/04/25 09:07:03;;;;;;;9.07;6.30;;;8.90;85.20;;;;;;5050671;28;20420;-70
2021/04/25 09:09:49;;;;;;;8.33;7.50;;;9.20;84.90;;;;;;5048846;28;20296;-73
2021/04/25 09:12:41;;;;;;;8.40;6.97;;;9.30;83.30;;;;;;5052961;28;20514;-71
2021/04/25 09:15:12;;;;;;;9.37;8.27;;;9.30;83.50;;;;;;5035041;28;20386;-71
2021/04/25 09:17:55;;;;;;;8.33;6.80;;;9.40;83.60;;;;;;5053714;28;20444;-71
2021/04/25 09:20:46;;;;;;;8.90;6.60;;;9.20;83.00;;;;;;5056292;28;20428;-70
2021/04/25 09:23:29;;;;;;;8.80;6.60;;;9.30;83.30;;;;;;5050973;28;20500;-70
2021/04/25 09:25:59;;;;;;;10.10;7.43;;;9.20;83.50;;;;;;5053630;28;20817;-71
2021/04/25 09:28:25;;;;;;;8.63;6.67;;;9.20;83.10;;;;;;5053034;28;20759;-71
2021/04/25 09:30:58;;;;;;;6.97;5.80;;;9.10;82.20;;;;;;5053303;28;20459;-71
2021/04/25 09:33:28;;;;;;;7.37;5.97;;;9.20;82.50;;;;;;5044185;28;20198;-70
2021/04/25 09:35:56;;;;;;;9.40;5.13;;;8.90;81.70;;;;;;5039489;28;20429;-71
2021/04/25 09:38:22;;;;;;;7.73;6.57;;;8.90;82.60;;;;;;5048553;28;20542;-71
2021/04/25 09:40:49;;;;;;;7.37;6.40;;;8.80;83.50;;;;;;5032559;28;20927;-71
2021/04/25 09:43:17;;;;;;;8.20;5.60;;;9.00;84.60;;;;;;5039253;28;20572;-71
2021/04/25 09:45:44;;;;;;;8.00;6.20;;;9.30;84.50;;;;;;5059789;28;20497;-71
2021/04/25 09:48:21;;;;;;;8.80;6.10;;;9.40;83.60;;;;;;5064128;28;20452;-71
2021/04/25 09:51:03;;;;;;;6.93;5.63;;;9.60;83.40;;;;;;5043222;28;20428;-70
2021/04/25 09:53:29;;;;;;;12.53;7.20;;;9.90;83.30;;;;;;5073677;28;20790;-70
2021/04/25 09:55:56;;;;;;;10.73;8.20;;;10.00;80.70;;;;;;5073365;28;20400;-71
2021/04/25 09:58:22;;;;;;;11.47;8.63;;;9.70;80.90;;;;;;5071822;28;20200;-71
2021/04/25 10:00:50;;;;;;;10.23;8.50;;;9.70;81.80;;;;;;5074009;28;20890;-70
2021/04/25 10:03:19;;;;;;;11.17;9.03;;;9.90;82.20;;;;;;5070021;28;20182;-70
2021/04/25 10:05:58;;;;;;;12.70;9.40;;;9.80;80.80;;;;;;5052298;28;20447;-70
2021/04/25 10:08:38;;;;;;;11.60;8.63;;;9.70;82.20;;;;;;5052688;28;20924;-72
2021/04/25 10:11:05;;;;;;;7.00;6.30;;;9.80;82.80;;;;;;5051692;28;20447;-70
2021/04/25 10:13:33;;;;;;;8.80;5.90;;;9.60;80.90;;;;;;5050127;28;20475;-72
2021/04/25 10:15:59;;;;;;;7.53;6.70;;;9.40;82.40;;;;;;5050894;28;20424;-70
2021/04/25 10:18:26;;;;;;;9.83;8.40;;;9.40;83.20;;;;;;5049285;28;20428;-70
2021/04/25 10:20:53;;;;;;;9.00;7.00;;;9.30;83.30;;;;;;5051113;28;20413;-71
2021/04/25 10:23:20;;;;;;;11.70;8.27;;;9.20;83.30;;;;;;5053251;28;20426;-71
2021/04/25 10:25:46;;;;;;;9.93;7.90;;;9.40;84.90;;;;;;5052321;28;20439;-71
2021/04/25 10:28:18;;;;;;;9.63;8.57;;;9.50;82.80;;;;;;5049095;28;20420;-72
2021/04/25 10:30:46;;;;;;;11.60;7.93;;;9.20;83.70;;;;;;5033488;28;20458;-70
2021/04/25 10:33:11;;;;;;;13.10;7.90;;;9.40;83.60;;;;;;5023905;28;20479;-71
2021/04/25 10:35:37;;;;;;;7.90;6.80;;;9.40;82.60;;;;;;5041431;28;20435;-70
2021/04/25 10:38:07;;;;;;;7.03;6.33;;;9.50;81.90;;;;;;5046622;28;20174;-70
2021/04/25 10:40:39;;;;;;;8.30;6.70;;;9.50;80.70;;;;;;5050591;28;20225;-70
2021/04/25 10:43:13;;;;;;;8.73;7.37;;;9.60;80.40;;;;;;5047628;28;20428;-71
2021/04/25 10:45:56;;;;;;;9.80;8.30;;;9.50;80.50;;;;;;5040337;28;20440;-71
2021/04/25 10:48:27;;;;;;;8.70;7.80;;;9.50;81.10;;;;;;5045869;28;20432;-70
2021/04/25 10:51:08;;;;;;;10.50;8.20;;;9.60;81.80;;;;;;5044167;28;20427;-72
2021/04/25 10:53:37;;;;;;;9.47;8.27;;;9.80;81.60;;;;;;5044666;28;20495;-71
2021/04/25 10:56:29;;;;;;;10.27;8.27;;;10.10;80.10;;;;;;5049734;28;21155;-70
2021/04/25 10:59:23;;;;;;;8.53;7.50;;;10.00;78.50;;;;;;5050199;28;20859;-71
2021/04/25 11:01:49;;;;;;;7.83;6.90;;;9.90;80.30;;;;;;5049106;28;20424;-70
2021/04/25 11:04:58;;;;;;;8.70;7.70;;;9.60;81.20;;;;;;5048527;28;20778;-71
2021/04/25 11:07:34;;;;;;;9.50;8.00;;;9.60;81.80;;;;;;5049494;28;20414;-71
2021/04/25 11:09:59;;;;;;;8.70;6.50;;;9.70;81.40;;;;;;5049118;28;20731;-71
2021/04/25 11:12:44;;;;;;;8.03;6.37;;;9.80;80.10;;;;;;5049542;28;20452;-72
2021/04/25 11:15:10;;;;;;;8.48;6.55;;;9.80;79.70;;;;;;5049840;28;20554;-71
2021/04/25 11:17:36;;;;;;;7.57;6.77;;;9.70;80.50;;;;;;5049641;28;20170;-71
2021/04/25 11:20:31;;;;;;;8.97;7.60;;;9.90;81.00;;;;;;5048367;28;20467;-71
2021/04/25 11:22:57;;;;;;;12.53;7.30;;;10.10;80.00;;;;;;5051168;28;20225;-71
2021/04/25 11:25:31;;;;;;;6.83;6.33;;;10.20;79.70;;;;;;5049580;28;20416;-71
2021/04/25 11:27:57;;;;;;;6.60;5.93;;;10.30;79.30;;;;;;5049061;28;20777;-71
2021/04/25 11:30:42;;;;;;;11.53;6.47;;;10.40;78.00;;;;;;5049545;28;20456;-71
2021/04/25 11:33:31;;;;;;;8.60;6.23;;;10.50;78.40;;;;;;5049060;28;20460;-70
2021/04/25 11:36:35;;;;;;;6.80;6.00;;;10.40;78.60;;;;;;5049474;28;20413;-71
2021/04/25 11:39:01;;;;;;;6.70;5.40;;;10.30;77.90;;;;;;5049514;28;20522;-71
2021/04/25 11:41:26;;;;;;;5.90;5.27;;;10.20;79.50;;;;;;5048394;28;21766;-71
2021/04/25 11:43:52;;;;;;;6.00;5.30;;;10.10;80.30;;;;;;5046515;28;20629;-72
2021/04/25 11:46:33;;;;;;;7.60;5.40;;;10.30;80.50;;;;;;5068644;28;20254;-72
2021/04/25 11:49:03;;;;;;;6.07;5.47;;;10.30;80.10;;;;;;5049799;28;20254;-71
2021/04/25 11:51:29;;;;;;;7.93;5.80;;;10.30;79.80;;;;;;5068792;28;20416;-71
2021/04/25 11:53:55;;;;;;;6.40;5.67;;;10.20;78.60;;;;;;5061468;28;20507;-71
2021/04/25 11:56:31;;;;;;;7.20;5.40;;;10.10;79.20;;;;;;5056736;28;20432;-72
2021/04/25 11:59:10;;;;;;;6.17;5.57;;;10.20;80.00;;;;;;5053262;28;20663;-70
2021/04/25 12:01:36;;;;;;;7.67;6.50;;;10.40;80.20;;;;;;5053443;28;20412;-70
2021/04/25 12:04:03;;;;;;;8.93;6.00;;;10.50;80.10;;;;;;5054519;28;20452;-70
2021/04/25 12:06:47;;;;;;;5.93;5.37;;;10.40;79.60;;;;;;5052688;28;20416;-71
2021/04/25 12:09:15;;;;;;;6.10;4.93;;;10.40;79.20;;;;;;5052371;28;20440;-72
2021/04/25 12:11:40;;;;;;;5.80;5.20;;;10.30;78.90;;;;;;5053147;28;20767;-72
2021/04/25 12:14:17;;;;;;;7.30;5.57;;;10.30;79.10;;;;;;5053954;28;20435;-70
2021/04/25 12:16:42;;;;;;;8.23;5.60;;;10.30;78.80;;;;;;5052339;28;20337;-72
2021/04/25 12:19:23;;;;;;;10.00;5.43;;;10.30;79.80;;;;;;5051762;28;20511;-72
2021/04/25 12:21:49;;;;;;;6.13;5.53;;;10.40;79.50;;;;;;5052453;28;20733;-70
2021/04/25 12:24:22;;;;;;;6.47;5.87;;;10.40;79.10;;;;;;5053421;28;20436;-70
2021/04/25 12:26:48;;;;;;;9.37;6.67;;;10.50;79.40;;;;;;5052123;28;20409;-72
2021/04/25 12:29:13;;;;;;;10.43;6.80;;;10.60;78.90;;;;;;5052098;28;20471;-71
2021/04/25 12:31:44;;;;;;;11.47;8.00;;;10.70;78.70;;;;;;5052674;28;20440;-71
2021/04/25 12:34:16;;;;;;;9.03;8.10;;;10.60;78.20;;;;;;5052448;28;20181;-71
2021/04/25 12:36:50;;;;;;;9.70;8.70;;;10.60;78.10;;;;;;5050948;28;20417;-71
2021/04/25 12:39:15;;;;;;;8.30;7.50;;;10.60;78.40;;;;;;5051690;28;20460;-71
2021/04/25 12:41:44;;;;;;;9.20;8.17;;;10.60;78.30;;;;;;5052095;28;20835;-70
2021/04/25 12:44:12;;;;;;;9.30;7.73;;;10.60;77.80;;;;;;5052086;28;20235;-71
2021/04/25 12:46:38;;;;;;;8.50;7.70;;;10.80;77.10;;;;;;5065174;28;20432;-71
2021/04/25 12:49:09;;;;;;;11.03;7.40;;;10.80;75.20;;;;;;5051761;28;20444;-71
2021/04/25 12:51:40;;;;;;;7.80;7.00;;;10.80;77.10;;;;;;5053174;28;20170;-71
2021/04/25 12:54:18;;;;;;;9.27;6.90;;;10.90;76.90;;;;;;5054170;28;20425;-72
2021/04/25 12:56:52;;;;;;;10.63;7.60;;;11.00;77.20;;;;;;5065042;28;20430;-72